Philadelphia, Pennsylvania
Traffic Map
Current Weather Conditions
Philadelphia, Pennsylvania
Broken Clouds
Broken Clouds
83°
Feels Like: 85°
Wind Chill: 83° Ceiling: 30000
Heat Index: 85° Visibility: 10mi
Dew Point: 67° Wind: 5mph
Humidity: 58% Direction: 200° (SSW)
Pressure: 29.98in Gusts: 0mph
Raw Report DataKPHL 161654Z 20004KT 10SM FEW040 SCT250 BKN300 28/19 A2998 RMK AO2 SLP150 T02830194 $
Traffic Incident Summary
Active as of:
Severity:
Category:
InformationThere was an issue retrieving the traffic information for this location. Please try a different location or try again shortly.
Advertisements